sensor_id;sensor_type;location;lat;lon;timestamp;temperature;humidity
26745;DHT22;14342;50.960;13.880;2023-03-03T00:00:43;2.60;99.90
26745;DHT22;14342;50.960;13.880;2023-03-03T00:01:45;2.70;99.90
26745;DHT22;14342;50.960;13.880;2023-03-03T00:02:47;2.70;99.90
26745;DHT22;14342;50.960;13.880;2023-03-03T00:03:47;2.70;99.90
26745;DHT22;14342;50.960;13.880;2023-03-03T00:04:50;2.50;99.90
26745;DHT22;14342;50.960;13.880;2023-03-03T00:05:51;2.50;99.90
26745;DHT22;14342;50.960;13.880;2023-03-03T00:06:53;2.60;99.90
26745;DHT22;14342;50.960;13.880;2023-03-03T00:07:53;2.60;99.90
26745;DHT22;14342;50.960;13.880;2023-03-03T00:08:55;2.50;99.90
26745;DHT22;14342;50.960;13.880;2023-03-03T00:09:55;2.30;99.90
26745;DHT22;14342;50.960;13.880;2023-03-03T00:10:57;2.00;99.90
26745;DHT22;14342;50.960;13.880;2023-03-03T00:11:57;1.90;99.90
26745;DHT22;14342;50.960;13.880;2023-03-03T00:13:00;2.10;99.90
26745;DHT22;14342;50.960;13.880;2023-03-03T00:14:01;1.80;99.90
26745;DHT22;14342;50.960;13.880;2023-03-03T00:15:11;1.80;99.90
26745;DHT22;14342;50.960;13.880;2023-03-03T00:16:14;1.90;99.90
26745;DHT22;14342;50.960;13.880;2023-03-03T00:17:18;1.90;99.90
26745;DHT22;14342;50.960;13.880;2023-03-03T00:18:21;1.80;99.90
26745;DHT22;14342;50.960;13.880;2023-03-03T00:19:25;1.80;99.90
26745;DHT22;14342;50.960;13.880;2023-03-03T00:20:30;1.70;99.90
26745;DHT22;14342;50.960;13.880;2023-03-03T00:21:32;1.50;99.90
26745;DHT22;14342;50.960;13.880;2023-03-03T00:22:34;1.50;99.90
26745;DHT22;14342;50.960;13.880;2023-03-03T00:23:36;1.40;99.90
26745;DHT22;14342;50.960;13.880;2023-03-03T00:24:37;1.40;99.90
26745;DHT22;14342;50.960;13.880;2023-03-03T00:25:39;1.40;99.90
26745;DHT22;14342;50.960;13.880;2023-03-03T00:26:41;1.40;99.90
26745;DHT22;14342;50.960;13.880;2023-03-03T00:27:44;1.40;99.90
26745;DHT22;14342;50.960;13.880;2023-03-03T00:28:46;1.20;99.90
26745;DHT22;14342;50.960;13.880;2023-03-03T00:29:48;1.30;99.90
26745;DHT22;14342;50.960;13.880;2023-03-03T00:30:50;1.10;99.90
26745;DHT22;14342;50.960;13.880;2023-03-03T00:31:52;1.10;99.90
26745;DHT22;14342;50.960;13.880;2023-03-03T00:32:53;1.20;99.90
26745;DHT22;14342;50.960;13.880;2023-03-03T00:33:55;1.20;99.90
26745;DHT22;14342;50.960;13.880;2023-03-03T00:34:59;1.30;99.90
26745;DHT22;14342;50.960;13.880;2023-03-03T00:36:09;1.30;99.90
26745;DHT22;14342;50.960;13.880;2023-03-03T00:37:19;1.20;99.90
26745;DHT22;14342;50.960;13.880;2023-03-03T00:38:22;1.30;99.90
26745;DHT22;14342;50.960;13.880;2023-03-03T00:39:25;1.30;99.90
26745;DHT22;14342;50.960;13.880;2023-03-03T00:40:30;1.40;99.90
26745;DHT22;14342;50.960;13.880;2023-03-03T00:41:33;1.60;99.90
26745;DHT22;14342;50.960;13.880;2023-03-03T00:42:35;1.70;99.90
26745;DHT22;14342;50.960;13.880;2023-03-03T00:43:36;1.70;99.90
26745;DHT22;14342;50.960;13.880;2023-03-03T00:44:38;1.70;99.90
26745;DHT22;14342;50.960;13.880;2023-03-03T00:45:40;1.50;99.90
26745;DHT22;14342;50.960;13.880;2023-03-03T00:46:43;1.40;99.90
26745;DHT22;14342;50.960;13.880;2023-03-03T00:47:44;1.80;99.90
26745;DHT22;14342;50.960;13.880;2023-03-03T00:48:45;1.50;99.90
26745;DHT22;14342;50.960;13.880;2023-03-03T00:49:46;1.50;99.90
26745;DHT22;14342;50.960;13.880;2023-03-03T00:50:48;1.60;99.90
26745;DHT22;14342;50.960;13.880;2023-03-03T00:51:51;1.20;99.90
26745;DHT22;14342;50.960;13.880;2023-03-03T00:52:56;1.10;99.90
26745;DHT22;14342;50.960;13.880;2023-03-03T00:53:58;1.00;99.90
26745;DHT22;14342;50.960;13.880;2023-03-03T00:55:00;1.00;99.90
26745;DHT22;14342;50.960;13.880;2023-03-03T00:56:00;1.00;99.90
26745;DHT22;14342;50.960;13.880;2023-03-03T00:57:02;1.10;99.90
26745;DHT22;14342;50.960;13.880;2023-03-03T00:58:02;1.00;99.90
26745;DHT22;14342;50.960;13.880;2023-03-03T00:59:04;1.00;99.90
26745;DHT22;14342;50.960;13.880;2023-03-03T01:00:05;0.80;99.90
26745;DHT22;14342;50.960;13.880;2023-03-03T01:01:07;0.80;99.90
26745;DHT22;14342;50.960;13.880;2023-03-03T01:02:08;0.80;99.90
26745;DHT22;14342;50.960;13.880;2023-03-03T01:03:11;0.80;99.90
26745;DHT22;14342;50.960;13.880;2023-03-03T01:04:12;0.90;99.90
26745;DHT22;14342;50.960;13.880;2023-03-03T01:05:14;0.90;99.90
26745;DHT22;14342;50.960;13.880;2023-03-03T01:06:15;0.90;99.90
26745;DHT22;14342;50.960;13.880;2023-03-03T01:07:18;0.90;99.90
26745;DHT22;14342;50.960;13.880;2023-03-03T01:08:19;1.10;99.90
26745;DHT22;14342;50.960;13.880;2023-03-03T01:09:21;0.80;99.90
26745;DHT22;14342;50.960;13.880;2023-03-03T01:10:21;0.80;99.90
26745;DHT22;14342;50.960;13.880;2023-03-03T01:11:24;0.90;99.90
26745;DHT22;14342;50.960;13.880;2023-03-03T01:12:27;1.00;99.90
26745;DHT22;14342;50.960;13.880;2023-03-03T01:13:29;0.90;99.90
26745;DHT22;14342;50.960;13.880;2023-03-03T01:14:31;0.90;99.90
26745;DHT22;14342;50.960;13.880;2023-03-03T01:15:32;1.00;99.90
26745;DHT22;14342;50.960;13.880;2023-03-03T01:16:33;1.10;99.90
26745;DHT22;14342;50.960;13.880;2023-03-03T01:17:34;1.10;99.90
26745;DHT22;14342;50.960;13.880;2023-03-03T01:18:36;1.10;99.90
26745;DHT22;14342;50.960;13.880;2023-03-03T01:19:39;1.20;99.90
26745;DHT22;14342;50.960;13.880;2023-03-03T01:20:40;1.20;99.90
26745;DHT22;14342;50.960;13.880;2023-03-03T01:21:41;1.00;99.90
26745;DHT22;14342;50.960;13.880;2023-03-03T01:22:43;1.20;99.90
26745;DHT22;14342;50.960;13.880;2023-03-03T01:23:45;1.00;99.90
26745;DHT22;14342;50.960;13.880;2023-03-03T01:24:45;1.10;99.90
26745;DHT22;14342;50.960;13.880;2023-03-03T01:25:47;1.10;99.90
26745;DHT22;14342;50.960;13.880;2023-03-03T01:26:47;1.10;99.90
26745;DHT22;14342;50.960;13.880;2023-03-03T01:27:49;1.20;99.90
26745;DHT22;14342;50.960;13.880;2023-03-03T01:28:49;1.10;99.90
26745;DHT22;14342;50.960;13.880;2023-03-03T01:29:51;1.10;99.90
26745;DHT22;14342;50.960;13.880;2023-03-03T01:30:52;1.30;99.90
26745;DHT22;14342;50.960;13.880;2023-03-03T01:31:53;1.00;99.90
26745;DHT22;14342;50.960;13.880;2023-03-03T01:32:54;0.90;99.90
26745;DHT22;14342;50.960;13.880;2023-03-03T01:33:55;0.90;99.90
26745;DHT22;14342;50.960;13.880;2023-03-03T01:34:56;1.00;99.90
26745;DHT22;14342;50.960;13.880;2023-03-03T01:35:57;1.20;99.90
26745;DHT22;14342;50.960;13.880;2023-03-03T01:36:59;1.20;99.90
26745;DHT22;14342;50.960;13.880;2023-03-03T01:38:01;1.10;99.90
26745;DHT22;14342;50.960;13.880;2023-03-03T01:39:03;1.00;99.90
26745;DHT22;14342;50.960;13.880;2023-03-03T01:40:04;0.90;99.90
26745;DHT22;14342;50.960;13.880;2023-03-03T01:41:07;0.80;99.90
26745;DHT22;14342;50.960;13.880;2023-03-03T01:42:07;0.80;99.90
26745;DHT22;14342;50.960;13.880;2023-03-03T01:43:11;0.80;99.90
26745;DHT22;14342;50.960;13.880;2023-03-03T01:44:12;0.80;99.90
26745;DHT22;14342;50.960;13.880;2023-03-03T01:45:16;1.00;99.90
26745;DHT22;14342;50.960;13.880;2023-03-03T01:46:28;1.00;99.90
26745;DHT22;14342;50.960;13.880;2023-03-03T01:47:31;1.10;99.90
26745;DHT22;14342;50.960;13.880;2023-03-03T01:48:33;1.10;99.90
26745;DHT22;14342;50.960;13.880;2023-03-03T01:49:39;1.10;99.90
26745;DHT22;14342;50.960;13.880;2023-03-03T01:50:44;1.40;99.90
26745;DHT22;14342;50.960;13.880;2023-03-03T01:51:47;1.30;99.90
26745;DHT22;14342;50.960;13.880;2023-03-03T01:52:48;1.40;99.90
26745;DHT22;14342;50.960;13.880;2023-03-03T01:53:52;1.40;99.90
26745;DHT22;14342;50.960;13.880;2023-03-03T01:54:54;1.50;99.90
26745;DHT22;14342;50.960;13.880;2023-03-03T01:55:57;1.60;99.90
26745;DHT22;14342;50.960;13.880;2023-03-03T01:57:00;1.60;99.90
26745;DHT22;14342;50.960;13.880;2023-03-03T01:58:04;1.50;99.90
26745;DHT22;14342;50.960;13.880;2023-03-03T01:59:06;1.50;99.90
26745;DHT22;14342;50.960;13.880;2023-03-03T02:00:10;1.50;99.90
26745;DHT22;14342;50.960;13.880;2023-03-03T02:01:13;1.50;99.90
26745;DHT22;14342;50.960;13.880;2023-03-03T02:02:15;1.80;99.90
26745;DHT22;14342;50.960;13.880;2023-03-03T02:03:16;2.10;99.90
26745;DHT22;14342;50.960;13.880;2023-03-03T02:04:18;2.10;99.90
26745;DHT22;14342;50.960;13.880;2023-03-03T02:05:21;2.10;99.90
26745;DHT22;14342;50.960;13.880;2023-03-03T02:06:23;2.20;99.90
26745;DHT22;14342;50.960;13.880;2023-03-03T02:07:24;2.20;99.90
26745;DHT22;14342;50.960;13.880;2023-03-03T02:08:29;2.20;99.90
26745;DHT22;14342;50.960;13.880;2023-03-03T02:09:33;2.20;99.90
26745;DHT22;14342;50.960;13.880;2023-03-03T02:10:35;2.20;99.90
26745;DHT22;14342;50.960;13.880;2023-03-03T02:11:37;2.10;99.90
26745;DHT22;14342;50.960;13.880;2023-03-03T02:12:41;2.00;99.90
26745;DHT22;14342;50.960;13.880;2023-03-03T02:13:42;1.70;99.90
26745;DHT22;14342;50.960;13.880;2023-03-03T02:14:43;1.40;99.90
26745;DHT22;14342;50.960;13.880;2023-03-03T02:15:44;1.20;99.90
26745;DHT22;14342;50.960;13.880;2023-03-03T02:16:46;1.20;99.90
26745;DHT22;14342;50.960;13.880;2023-03-03T02:17:47;1.10;99.90
26745;DHT22;14342;50.960;13.880;2023-03-03T02:18:49;0.90;99.90
26745;DHT22;14342;50.960;13.880;2023-03-03T02:19:51;0.90;99.90
26745;DHT22;14342;50.960;13.880;2023-03-03T02:20:56;0.70;99.90
26745;DHT22;14342;50.960;13.880;2023-03-03T02:21:58;0.60;99.90
26745;DHT22;14342;50.960;13.880;2023-03-03T02:23:02;0.50;99.90
26745;DHT22;14342;50.960;13.880;2023-03-03T02:24:06;0.40;99.90
26745;DHT22;14342;50.960;13.880;2023-03-03T02:25:12;0.50;99.90
26745;DHT22;14342;50.960;13.880;2023-03-03T02:26:17;0.50;99.90
26745;DHT22;14342;50.960;13.880;2023-03-03T02:27:18;0.40;99.90
26745;DHT22;14342;50.960;13.880;2023-03-03T02:28:19;0.50;99.90
26745;DHT22;14342;50.960;13.880;2023-03-03T02:29:20;0.50;99.90
26745;DHT22;14342;50.960;13.880;2023-03-03T02:30:22;0.40;99.90
26745;DHT22;14342;50.960;13.880;2023-03-03T02:31:25;0.40;99.90
26745;DHT22;14342;50.960;13.880;2023-03-03T02:32:26;0.30;99.90
26745;DHT22;14342;50.960;13.880;2023-03-03T02:33:28;0.20;99.90
26745;DHT22;14342;50.960;13.880;2023-03-03T02:34:29;0.10;99.90
26745;DHT22;14342;50.960;13.880;2023-03-03T02:35:31;0.10;99.90
26745;DHT22;14342;50.960;13.880;2023-03-03T02:36:33;0.10;99.90
26745;DHT22;14342;50.960;13.880;2023-03-03T02:37:35;0.00;99.90
26745;DHT22;14342;50.960;13.880;2023-03-03T02:38:36;0.00;99.90
26745;DHT22;14342;50.960;13.880;2023-03-03T02:39:42;-0.10;99.90
26745;DHT22;14342;50.960;13.880;2023-03-03T02:40:44;-0.10;99.90
26745;DHT22;14342;50.960;13.880;2023-03-03T02:41:51;-0.10;99.90
26745;DHT22;14342;50.960;13.880;2023-03-03T02:42:53;-0.10;99.90
26745;DHT22;14342;50.960;13.880;2023-03-03T02:43:57;0.00;99.90
26745;DHT22;14342;50.960;13.880;2023-03-03T02:44:58;-0.10;99.90
26745;DHT22;14342;50.960;13.880;2023-03-03T02:45:59;-0.10;99.90
26745;DHT22;14342;50.960;13.880;2023-03-03T02:47:00;-0.10;99.90
26745;DHT22;14342;50.960;13.880;2023-03-03T02:48:02;-0.20;99.90
26745;DHT22;14342;50.960;13.880;2023-03-03T02:49:03;-0.20;99.90
26745;DHT22;14342;50.960;13.880;2023-03-03T02:50:05;-0.20;99.90
26745;DHT22;14342;50.960;13.880;2023-03-03T02:51:06;-0.20;99.90
26745;DHT22;14342;50.960;13.880;2023-03-03T02:52:09;-0.20;99.90
26745;DHT22;14342;50.960;13.880;2023-03-03T02:53:09;-0.20;99.90
26745;DHT22;14342;50.960;13.880;2023-03-03T02:54:11;-0.20;99.90
26745;DHT22;14342;50.960;13.880;2023-03-03T02:55:12;-0.20;99.90
26745;DHT22;14342;50.960;13.880;2023-03-03T02:56:14;0.00;99.90
26745;DHT22;14342;50.960;13.880;2023-03-03T02:57:16;0.00;99.90
26745;DHT22;14342;50.960;13.880;2023-03-03T02:58:17;-0.10;99.90
26745;DHT22;14342;50.960;13.880;2023-03-03T02:59:18;-0.10;99.90
26745;DHT22;14342;50.960;13.880;2023-03-03T03:00:20;-0.10;99.90
26745;DHT22;14342;50.960;13.880;2023-03-03T03:01:20;-0.20;99.90
26745;DHT22;14342;50.960;13.880;2023-03-03T03:02:22;-0.20;99.90
26745;DHT22;14342;50.960;13.880;2023-03-03T03:03:22;-0.30;99.90
26745;DHT22;14342;50.960;13.880;2023-03-03T03:04:24;-0.30;99.90
26745;DHT22;14342;50.960;13.880;2023-03-03T03:05:25;-0.20;99.90
26745;DHT22;14342;50.960;13.880;2023-03-03T03:06:26;-0.10;99.90
26745;DHT22;14342;50.960;13.880;2023-03-03T03:07:27;-0.10;99.90
26745;DHT22;14342;50.960;13.880;2023-03-03T03:08:28;0.20;99.90
26745;DHT22;14342;50.960;13.880;2023-03-03T03:09:29;-0.10;99.90
26745;DHT22;14342;50.960;13.880;2023-03-03T03:10:30;-0.20;99.90
26745;DHT22;14342;50.960;13.880;2023-03-03T03:11:31;-0.10;99.90
26745;DHT22;14342;50.960;13.880;2023-03-03T03:12:35;-0.10;99.90
26745;DHT22;14342;50.960;13.880;2023-03-03T03:13:36;-0.10;99.90
26745;DHT22;14342;50.960;13.880;2023-03-03T03:14:38;-0.20;99.90
26745;DHT22;14342;50.960;13.880;2023-03-03T03:15:38;-0.20;99.90
26745;DHT22;14342;50.960;13.880;2023-03-03T03:16:40;0.00;99.90
26745;DHT22;14342;50.960;13.880;2023-03-03T03:17:40;-0.20;99.90
26745;DHT22;14342;50.960;13.880;2023-03-03T03:18:42;-0.10;99.90
26745;DHT22;14342;50.960;13.880;2023-03-03T03:19:43;-0.20;99.90
26745;DHT22;14342;50.960;13.880;2023-03-03T03:20:44;-0.20;99.90
26745;DHT22;14342;50.960;13.880;2023-03-03T03:21:45;-0.20;99.90
26745;DHT22;14342;50.960;13.880;2023-03-03T03:22:46;-0.20;99.90
26745;DHT22;14342;50.960;13.880;2023-03-03T03:23:47;-0.40;99.90
26745;DHT22;14342;50.960;13.880;2023-03-03T03:24:48;-0.40;99.90
26745;DHT22;14342;50.960;13.880;2023-03-03T03:25:49;-0.40;99.90
26745;DHT22;14342;50.960;13.880;2023-03-03T03:26:50;-0.30;99.90
26745;DHT22;14342;50.960;13.880;2023-03-03T03:27:52;-0.30;99.90
26745;DHT22;14342;50.960;13.880;2023-03-03T03:28:54;-0.30;99.90
26745;DHT22;14342;50.960;13.880;2023-03-03T03:29:54;-0.30;99.90
26745;DHT22;14342;50.960;13.880;2023-03-03T03:30:56;-0.40;99.90
26745;DHT22;14342;50.960;13.880;2023-03-03T03:31:57;-0.40;99.90
26745;DHT22;14342;50.960;13.880;2023-03-03T03:32:58;-0.40;99.90
26745;DHT22;14342;50.960;13.880;2023-03-03T03:33:59;-0.40;99.90
26745;DHT22;14342;50.960;13.880;2023-03-03T03:35:00;-0.50;99.90
26745;DHT22;14342;50.960;13.880;2023-03-03T03:36:01;-0.50;99.90
26745;DHT22;14342;50.960;13.880;2023-03-03T03:37:03;-0.50;99.90
26745;DHT22;14342;50.960;13.880;2023-03-03T03:38:04;-0.50;99.90
26745;DHT22;14342;50.960;13.880;2023-03-03T03:39:05;-0.50;99.90
26745;DHT22;14342;50.960;13.880;2023-03-03T03:40:06;-0.40;99.90
26745;DHT22;14342;50.960;13.880;2023-03-03T03:41:08;-0.40;99.90
26745;DHT22;14342;50.960;13.880;2023-03-03T03:42:10;-0.40;99.90
26745;DHT22;14342;50.960;13.880;2023-03-03T03:43:13;-0.40;99.90
26745;DHT22;14342;50.960;13.880;2023-03-03T03:44:13;-0.40;99.90
26745;DHT22;14342;50.960;13.880;2023-03-03T03:45:15;-0.30;99.90
26745;DHT22;14342;50.960;13.880;2023-03-03T03:46:15;-0.50;99.90
26745;DHT22;14342;50.960;13.880;2023-03-03T03:47:17;-0.30;99.90
26745;DHT22;14342;50.960;13.880;2023-03-03T03:48:17;-0.30;99.90
26745;DHT22;14342;50.960;13.880;2023-03-03T03:49:20;-0.40;99.90
26745;DHT22;14342;50.960;13.880;2023-03-03T03:50:20;-0.30;99.90
26745;DHT22;14342;50.960;13.880;2023-03-03T03:51:22;-0.40;99.90
26745;DHT22;14342;50.960;13.880;2023-03-03T03:52:22;-0.50;99.90
26745;DHT22;14342;50.960;13.880;2023-03-03T03:53:24;-0.50;99.90
26745;DHT22;14342;50.960;13.880;2023-03-03T03:54:24;-0.50;99.90
26745;DHT22;14342;50.960;13.880;2023-03-03T03:55:26;-0.60;99.90
26745;DHT22;14342;50.960;13.880;2023-03-03T03:56:26;-0.50;99.90
26745;DHT22;14342;50.960;13.880;2023-03-03T03:57:28;-0.40;99.90
26745;DHT22;14342;50.960;13.880;2023-03-03T03:58:30;-0.30;99.90
26745;DHT22;14342;50.960;13.880;2023-03-03T03:59:31;-0.10;99.90
26745;DHT22;14342;50.960;13.880;2023-03-03T04:00:32;-0.10;99.90
26745;DHT22;14342;50.960;13.880;2023-03-03T04:01:33;-0.10;99.90
26745;DHT22;14342;50.960;13.880;2023-03-03T04:02:34;-0.20;99.90
26745;DHT22;14342;50.960;13.880;2023-03-03T04:03:36;-0.20;99.90
26745;DHT22;14342;50.960;13.880;2023-03-03T04:04:36;-0.20;99.90
26745;DHT22;14342;50.960;13.880;2023-03-03T04:05:38;-0.30;99.90
26745;DHT22;14342;50.960;13.880;2023-03-03T04:06:38;-0.40;99.90
26745;DHT22;14342;50.960;13.880;2023-03-03T04:07:40;0.00;99.90
26745;DHT22;14342;50.960;13.880;2023-03-03T04:08:40;-0.30;99.90
26745;DHT22;14342;50.960;13.880;2023-03-03T04:09:42;-0.20;99.90
26745;DHT22;14342;50.960;13.880;2023-03-03T04:10:42;-0.20;99.90
26745;DHT22;14342;50.960;13.880;2023-03-03T04:11:44;0.10;99.90
26745;DHT22;14342;50.960;13.880;2023-03-03T04:12:44;-0.20;99.90
26745;DHT22;14342;50.960;13.880;2023-03-03T04:13:47;-0.30;99.90
26745;DHT22;14342;50.960;13.880;2023-03-03T04:14:48;-0.30;99.90
26745;DHT22;14342;50.960;13.880;2023-03-03T04:15:49;-0.30;99.90
26745;DHT22;14342;50.960;13.880;2023-03-03T04:16:50;-0.30;99.90
26745;DHT22;14342;50.960;13.880;2023-03-03T04:17:51;-0.30;99.90
26745;DHT22;14342;50.960;13.880;2023-03-03T04:18:52;-0.30;99.90
26745;DHT22;14342;50.960;13.880;2023-03-03T04:19:53;-0.30;99.90
26745;DHT22;14342;50.960;13.880;2023-03-03T04:20:54;-0.30;99.90
26745;DHT22;14342;50.960;13.880;2023-03-03T04:21:55;-0.30;99.90
26745;DHT22;14342;50.960;13.880;2023-03-03T04:22:56;-0.30;99.90
26745;DHT22;14342;50.960;13.880;2023-03-03T04:23:57;-0.30;99.90
26745;DHT22;14342;50.960;13.880;2023-03-03T04:24:58;-0.20;99.90
26745;DHT22;14342;50.960;13.880;2023-03-03T04:25:59;-0.30;99.90
26745;DHT22;14342;50.960;13.880;2023-03-03T04:27:00;-0.20;99.90
26745;DHT22;14342;50.960;13.880;2023-03-03T04:28:02;-0.30;99.90
26745;DHT22;14342;50.960;13.880;2023-03-03T04:29:03;-0.30;99.90
26745;DHT22;14342;50.960;13.880;2023-03-03T04:30:05;-0.50;99.90
26745;DHT22;14342;50.960;13.880;2023-03-03T04:31:06;-0.50;99.90
26745;DHT22;14342;50.960;13.880;2023-03-03T04:32:08;-0.50;99.90
26745;DHT22;14342;50.960;13.880;2023-03-03T04:33:08;-0.50;99.90
26745;DHT22;14342;50.960;13.880;2023-03-03T04:34:10;-0.50;99.90
26745;DHT22;14342;50.960;13.880;2023-03-03T04:35:10;-0.50;99.90
26745;DHT22;14342;50.960;13.880;2023-03-03T04:36:12;-0.50;99.90
26745;DHT22;14342;50.960;13.880;2023-03-03T04:37:13;-0.50;99.90
26745;DHT22;14342;50.960;13.880;2023-03-03T04:38:14;-0.50;99.90
26745;DHT22;14342;50.960;13.880;2023-03-03T04:39:16;-0.60;99.90
26745;DHT22;14342;50.960;13.880;2023-03-03T04:40:16;-0.50;99.90
26745;DHT22;14342;50.960;13.880;2023-03-03T04:41:18;-0.50;99.90
26745;DHT22;14342;50.960;13.880;2023-03-03T04:42:19;-0.40;99.90
26745;DHT22;14342;50.960;13.880;2023-03-03T04:43:20;-0.50;99.90
26745;DHT22;14342;50.960;13.880;2023-03-03T04:44:22;-0.10;99.90
26745;DHT22;14342;50.960;13.880;2023-03-03T04:45:23;-0.40;99.90
26745;DHT22;14342;50.960;13.880;2023-03-03T04:46:24;-0.20;99.90
26745;DHT22;14342;50.960;13.880;2023-03-03T04:47:25;-0.40;99.90
26745;DHT22;14342;50.960;13.880;2023-03-03T04:48:26;-0.50;99.90
26745;DHT22;14342;50.960;13.880;2023-03-03T04:49:27;-0.50;99.90
26745;DHT22;14342;50.960;13.880;2023-03-03T04:50:28;-0.60;99.90
26745;DHT22;14342;50.960;13.880;2023-03-03T04:51:29;-0.60;99.90
26745;DHT22;14342;50.960;13.880;2023-03-03T04:52:30;-0.60;99.90
26745;DHT22;14342;50.960;13.880;2023-03-03T04:53:31;-0.70;99.90
26745;DHT22;14342;50.960;13.880;2023-03-03T04:54:32;-0.30;99.90
26745;DHT22;14342;50.960;13.880;2023-03-03T04:55:34;-0.70;99.90
26745;DHT22;14342;50.960;13.880;2023-03-03T04:56:35;-0.60;99.90
26745;DHT22;14342;50.960;13.880;2023-03-03T04:57:36;-0.60;99.90
26745;DHT22;14342;50.960;13.880;2023-03-03T04:58:38;-0.50;99.90
26745;DHT22;14342;50.960;13.880;2023-03-03T04:59:40;-0.50;99.90
26745;DHT22;14342;50.960;13.880;2023-03-03T05:00:41;-0.50;99.90
26745;DHT22;14342;50.960;13.880;2023-03-03T05:01:42;-0.40;99.90
26745;DHT22;14342;50.960;13.880;2023-03-03T05:02:46;-0.50;99.90
26745;DHT22;14342;50.960;13.880;2023-03-03T05:03:47;-0.60;99.90
26745;DHT22;14342;50.960;13.880;2023-03-03T05:04:48;-0.60;99.90
26745;DHT22;14342;50.960;13.880;2023-03-03T05:05:49;-0.60;99.90
26745;DHT22;14342;50.960;13.880;2023-03-03T05:06:51;-0.80;99.90
26745;DHT22;14342;50.960;13.880;2023-03-03T05:07:51;-0.80;99.90
26745;DHT22;14342;50.960;13.880;2023-03-03T05:08:53;-0.80;99.90
26745;DHT22;14342;50.960;13.880;2023-03-03T05:09:53;-0.70;99.90
26745;DHT22;14342;50.960;13.880;2023-03-03T05:10:55;-0.30;99.90
26745;DHT22;14342;50.960;13.880;2023-03-03T05:11:56;-0.60;99.90
26745;DHT22;14342;50.960;13.880;2023-03-03T05:12:57;-0.60;99.90
26745;DHT22;14342;50.960;13.880;2023-03-03T05:13:58;-0.50;99.90
26745;DHT22;14342;50.960;13.880;2023-03-03T05:15:01;-0.50;99.90
26745;DHT22;14342;50.960;13.880;2023-03-03T05:16:01;-0.50;99.90
26745;DHT22;14342;50.960;13.880;2023-03-03T05:17:03;-0.50;99.90
26745;DHT22;14342;50.960;13.880;2023-03-03T05:18:03;-0.50;99.90
26745;DHT22;14342;50.960;13.880;2023-03-03T05:19:05;-0.50;99.90
26745;DHT22;14342;50.960;13.880;2023-03-03T05:20:06;-0.60;99.90
26745;DHT22;14342;50.960;13.880;2023-03-03T05:21:09;-0.60;99.90
26745;DHT22;14342;50.960;13.880;2023-03-03T05:22:10;-0.60;99.90
26745;DHT22;14342;50.960;13.880;2023-03-03T05:23:11;-0.70;99.90
26745;DHT22;14342;50.960;13.880;2023-03-03T05:24:12;-0.60;99.90
26745;DHT22;14342;50.960;13.880;2023-03-03T05:25:14;-0.60;99.90
26745;DHT22;14342;50.960;13.880;2023-03-03T05:26:14;-0.50;99.90
26745;DHT22;14342;50.960;13.880;2023-03-03T05:27:16;-0.50;99.90
26745;DHT22;14342;50.960;13.880;2023-03-03T05:28:16;-0.60;99.90
26745;DHT22;14342;50.960;13.880;2023-03-03T05:29:18;-0.50;99.90
26745;DHT22;14342;50.960;13.880;2023-03-03T05:30:20;-0.10;99.90
26745;DHT22;14342;50.960;13.880;2023-03-03T05:31:21;-0.30;99.90
26745;DHT22;14342;50.960;13.880;2023-03-03T05:32:22;-0.30;99.90
26745;DHT22;14342;50.960;13.880;2023-03-03T05:33:24;-0.20;99.90
26745;DHT22;14342;50.960;13.880;2023-03-03T05:34:24;-0.10;99.90
26745;DHT22;14342;50.960;13.880;2023-03-03T05:35:26;0.10;99.90
26745;DHT22;14342;50.960;13.880;2023-03-03T05:36:26;0.20;99.90
26745;DHT22;14342;50.960;13.880;2023-03-03T05:37:28;0.30;99.90
26745;DHT22;14342;50.960;13.880;2023-03-03T05:38:28;0.40;99.90
26745;DHT22;14342;50.960;13.880;2023-03-03T05:39:30;0.40;99.90
26745;DHT22;14342;50.960;13.880;2023-03-03T05:40:30;0.40;99.90
26745;DHT22;14342;50.960;13.880;2023-03-03T05:41:32;0.40;99.90
26745;DHT22;14342;50.960;13.880;2023-03-03T05:42:36;0.30;99.90
26745;DHT22;14342;50.960;13.880;2023-03-03T05:43:37;0.40;99.90
26745;DHT22;14342;50.960;13.880;2023-03-03T05:44:38;0.50;99.90
26745;DHT22;14342;50.960;13.880;2023-03-03T05:45:40;0.60;99.90
26745;DHT22;14342;50.960;13.880;2023-03-03T05:46:41;0.60;99.90
26745;DHT22;14342;50.960;13.880;2023-03-03T05:47:42;0.70;99.90
26745;DHT22;14342;50.960;13.880;2023-03-03T05:48:43;0.90;99.90
26745;DHT22;14342;50.960;13.880;2023-03-03T05:49:44;1.00;99.90
26745;DHT22;14342;50.960;13.880;2023-03-03T05:50:45;1.20;99.90
26745;DHT22;14342;50.960;13.880;2023-03-03T05:51:46;1.30;99.90
26745;DHT22;14342;50.960;13.880;2023-03-03T05:52:47;1.20;99.90
26745;DHT22;14342;50.960;13.880;2023-03-03T05:53:49;1.10;99.90
26745;DHT22;14342;50.960;13.880;2023-03-03T05:54:50;0.90;99.90
26745;DHT22;14342;50.960;13.880;2023-03-03T05:55:51;0.80;99.90
26745;DHT22;14342;50.960;13.880;2023-03-03T05:56:52;0.60;99.90
26745;DHT22;14342;50.960;13.880;2023-03-03T05:57:53;0.50;99.90
26745;DHT22;14342;50.960;13.880;2023-03-03T05:58:54;0.40;99.90
26745;DHT22;14342;50.960;13.880;2023-03-03T05:59:55;0.40;99.90
26745;DHT22;14342;50.960;13.880;2023-03-03T06:00:57;0.50;99.90
26745;DHT22;14342;50.960;13.880;2023-03-03T06:01:59;0.50;99.90
26745;DHT22;14342;50.960;13.880;2023-03-03T06:02:59;0.50;99.90
26745;DHT22;14342;50.960;13.880;2023-03-03T06:04:01;0.50;99.90
26745;DHT22;14342;50.960;13.880;2023-03-03T06:05:01;0.50;99.90
26745;DHT22;14342;50.960;13.880;2023-03-03T06:06:03;0.50;99.90
26745;DHT22;14342;50.960;13.880;2023-03-03T06:07:03;0.60;99.90
26745;DHT22;14342;50.960;13.880;2023-03-03T06:08:05;0.70;99.90
26745;DHT22;14342;50.960;13.880;2023-03-03T06:09:07;0.80;99.90
26745;DHT22;14342;50.960;13.880;2023-03-03T06:10:09;0.70;99.90
26745;DHT22;14342;50.960;13.880;2023-03-03T06:11:09;0.70;99.90
26745;DHT22;14342;50.960;13.880;2023-03-03T06:12:12;0.60;99.90
26745;DHT22;14342;50.960;13.880;2023-03-03T06:13:12;0.70;99.90
26745;DHT22;14342;50.960;13.880;2023-03-03T06:14:14;0.80;99.90
26745;DHT22;14342;50.960;13.880;2023-03-03T06:15:15;0.80;99.90
26745;DHT22;14342;50.960;13.880;2023-03-03T06:16:17;0.80;99.90
26745;DHT22;14342;50.960;13.880;2023-03-03T06:17:19;0.70;99.90
26745;DHT22;14342;50.960;13.880;2023-03-03T06:18:20;0.80;99.90
26745;DHT22;14342;50.960;13.880;2023-03-03T06:19:21;0.70;99.90
26745;DHT22;14342;50.960;13.880;2023-03-03T06:20:22;0.70;99.90
26745;DHT22;14342;50.960;13.880;2023-03-03T06:21:23;0.70;99.90
26745;DHT22;14342;50.960;13.880;2023-03-03T06:22:24;0.80;99.90
26745;DHT22;14342;50.960;13.880;2023-03-03T06:23:26;0.80;99.90
26745;DHT22;14342;50.960;13.880;2023-03-03T06:24:26;0.80;99.90
26745;DHT22;14342;50.960;13.880;2023-03-03T06:25:29;0.80;99.90
26745;DHT22;14342;50.960;13.880;2023-03-03T06:26:30;0.90;99.90
26745;DHT22;14342;50.960;13.880;2023-03-03T06:27:32;0.90;99.90